Time;durP1;ratioP1;P1;durP2;ratioP2;P2;SDS_P1;SDS_P2;PMS_P1;PMS_P2;Temp;Humidity;BMP_temperature;BMP_pressure;BME280_temperature;BME280_humidity;BME280_pressure;Samples;Min_cycle;Max_cycle;Signal;HPM_P1;HPM_P2
2023/01/09 00:01:22;;;;;;;;;;;18.20;66.70;;;;;;4964478;28;917;-69
2023/01/09 00:03:47;;;;;;;;;;;18.20;66.70;;;;;;4969331;28;1427;-70
2023/01/09 00:06:13;;;;;;;;;;;18.20;66.70;;;;;;4969472;28;1256;-70
2023/01/09 00:08:38;;;;;;;;;;;18.20;66.80;;;;;;4965302;28;1003;-70
2023/01/09 00:11:04;;;;;;;;;;;18.20;66.80;;;;;;4966886;28;1957;-69
2023/01/09 00:13:29;;;;;;;;;;;18.10;66.70;;;;;;4966323;28;1057;-70
2023/01/09 00:15:55;;;;;;;;;;;18.10;66.70;;;;;;4964809;28;1355;-70
2023/01/09 00:18:20;;;;;;;;;;;18.20;66.80;;;;;;4967575;28;904;-70
2023/01/09 00:20:46;;;;;;;;;;;18.10;66.70;;;;;;4966225;28;1447;-71
2023/01/09 00:23:11;;;;;;;;;;;18.20;66.80;;;;;;4970529;28;811;-70
2023/01/09 00:25:37;;;;;;;;;;;18.10;66.80;;;;;;4969412;28;1291;-70
2023/01/09 00:28:02;;;;;;;;;;;18.20;66.80;;;;;;4968040;28;892;-69
2023/01/09 00:30:28;;;;;;;;;;;18.10;66.80;;;;;;4964841;28;1965;-70
2023/01/09 00:32:53;;;;;;;;;;;18.10;66.80;;;;;;4967685;28;916;-70
2023/01/09 00:35:19;;;;;;;;;;;18.10;66.80;;;;;;4969155;28;1483;-69
2023/01/09 00:37:44;;;;;;;;;;;18.10;66.80;;;;;;4966743;28;892;-70
2023/01/09 00:40:10;;;;;;;;;;;18.10;66.80;;;;;;4965424;28;903;-70
2023/01/09 00:42:35;;;;;;;;;;;18.10;66.80;;;;;;4968272;28;790;-70
2023/01/09 00:45:02;;;;;;;;;;;18.10;66.90;;;;;;4966075;28;1354;-69
2023/01/09 00:47:29;;;;;;;;;;;18.10;66.90;;;;;;4964703;28;928;-69
2023/01/09 00:49:57;;;;;;;;;;;18.10;66.90;;;;;;4968058;28;1973;-69
2023/01/09 00:52:22;;;;;;;;;;;18.10;66.90;;;;;;4966864;28;877;-70
2023/01/09 00:54:48;;;;;;;;;;;18.10;66.90;;;;;;4966191;28;1254;-70
2023/01/09 00:57:13;;;;;;;;;;;18.10;66.90;;;;;;4978580;28;1626;-70
2023/01/09 00:59:39;;;;;;;;;;;18.10;66.90;;;;;;4964851;28;880;-70
2023/01/09 01:02:05;;;;;;;;;;;18.10;66.90;;;;;;4963555;28;891;-70
2023/01/09 01:09:58;;;;;;;;;;;18.10;67.00;;;;;;4966311;28;1957;-70
2023/01/09 01:12:24;;;;;;;;;;;18.10;66.90;;;;;;4967524;28;864;-69
2023/01/09 01:14:50;;;;;;;;;;;18.10;67.00;;;;;;4965647;28;1352;-70
2023/01/09 01:17:16;;;;;;;;;;;18.10;67.00;;;;;;4963495;28;959;-70
2023/01/09 01:19:41;;;;;;;;;;;18.10;67.00;;;;;;4965342;28;1344;-70
2023/01/09 01:22:06;;;;;;;;;;;18.10;67.00;;;;;;4970044;28;1322;-69
2023/01/09 01:24:32;;;;;;;;;;;18.10;67.00;;;;;;4967920;28;879;-69
2023/01/09 01:26:57;;;;;;;;;;;18.10;67.00;;;;;;4967421;28;1248;-70
2023/01/09 01:29:23;;;;;;;;;;;18.10;67.00;;;;;;4968080;28;1982;-70
2023/01/09 01:31:50;;;;;;;;;;;18.10;67.10;;;;;;4964620;28;1051;-70
2023/01/09 01:34:15;;;;;;;;;;;18.00;67.00;;;;;;4966130;28;1403;-70
2023/01/09 01:36:40;;;;;;;;;;;18.10;67.10;;;;;;4968408;28;1364;-70
2023/01/09 01:39:06;;;;;;;;;;;18.00;67.00;;;;;;4964055;28;955;-70
2023/01/09 01:41:31;;;;;;;;;;;18.00;67.10;;;;;;4964913;28;939;-69
2023/01/09 01:44:01;;;;;;;;;;;18.10;67.10;;;;;;4965281;28;1773;-69
2023/01/09 01:46:27;;;;;;;;;;;18.00;67.00;;;;;;4963762;28;1381;-69
2023/01/09 01:48:54;;;;;;;;;;;18.00;67.10;;;;;;4963796;28;1965;-69
2023/01/09 01:51:20;;;;;;;;;;;18.00;67.10;;;;;;4948715;28;1030;-70
2023/01/09 01:53:47;;;;;;;;;;;18.00;67.00;;;;;;4962291;28;946;-69
2023/01/09 01:56:24;;;;;;;;;;;18.00;67.10;;;;;;4967179;28;1250;-69
2023/01/09 01:58:51;;;;;;;;;;;18.00;67.10;;;;;;4963799;28;908;-69
2023/01/09 02:01:16;;;;;;;;;;;18.00;67.10;;;;;;4963232;28;931;-70
2023/01/09 02:03:42;;;;;;;;;;;18.00;67.10;;;;;;4963111;28;1329;-69
2023/01/09 02:06:08;;;;;;;;;;;18.00;67.10;;;;;;4965027;28;1444;-70
2023/01/09 02:08:33;;;;;;;;;;;18.00;67.10;;;;;;4972430;28;923;-70
2023/01/09 02:10:58;;;;;;;;;;;18.00;67.10;;;;;;4969878;28;1961;-69
2023/01/09 02:13:24;;;;;;;;;;;18.00;67.10;;;;;;4969576;28;863;-69
2023/01/09 02:16:25;;;;;;;;;;;18.00;67.20;;;;;;4968511;28;1269;-69
2023/01/09 02:18:59;;;;;;;;;;;18.00;67.20;;;;;;4983280;28;1014;-70
2023/01/09 02:21:49;;;;;;;;;;;18.00;67.20;;;;;;4975143;28;958;-69
2023/01/09 02:24:17;;;;;;;;;;;18.00;67.20;;;;;;4968182;28;887;-69
2023/01/09 02:27:01;;;;;;;;;;;18.00;67.20;;;;;;4970580;28;1355;-69
2023/01/09 02:29:35;;;;;;;;;;;18.00;67.20;;;;;;4968446;28;1948;-70
2023/01/09 02:32:18;;;;;;;;;;;18.00;67.20;;;;;;4967926;28;843;-69
2023/01/09 02:35:08;;;;;;;;;;;18.00;67.20;;;;;;4968530;28;1303;-69
2023/01/09 02:37:44;;;;;;;;;;;18.00;67.20;;;;;;4966994;28;1081;-69
2023/01/09 02:40:15;;;;;;;;;;;18.00;67.20;;;;;;4964141;28;1286;-69
2023/01/09 02:42:41;;;;;;;;;;;18.00;67.30;;;;;;4970098;28;1401;-70
2023/01/09 02:45:06;;;;;;;;;;;18.00;67.30;;;;;;4967160;28;1687;-69
2023/01/09 02:47:36;;;;;;;;;;;18.00;67.30;;;;;;4970961;28;1295;-70
2023/01/09 02:50:02;;;;;;;;;;;18.00;67.30;;;;;;4972736;28;1971;-70
2023/01/09 02:52:37;;;;;;;;;;;18.00;67.30;;;;;;4970965;28;2266;-69
2023/01/09 02:55:23;;;;;;;;;;;18.00;67.30;;;;;;4969012;28;1471;-68
2023/01/09 02:58:07;;;;;;;;;;;18.00;67.30;;;;;;4971250;28;1310;-69
2023/01/09 03:00:32;;;;;;;;;;;18.00;67.30;;;;;;4968989;28;1326;-70
2023/01/09 03:03:18;;;;;;;;;;;18.00;67.30;;;;;;4968405;28;1455;-70
2023/01/09 03:05:50;;;;;;;;;;;18.00;67.30;;;;;;4968644;28;1353;-68
2023/01/09 03:08:20;;;;;;;;;;;18.00;67.40;;;;;;4979574;28;1356;-69
2023/01/09 03:10:53;;;;;;;;;;;18.00;67.30;;;;;;4970253;28;1961;-68
2023/01/09 03:13:18;;;;;;;;;;;18.00;67.30;;;;;;4968310;28;1547;-68
2023/01/09 03:15:44;;;;;;;;;;;18.00;67.40;;;;;;4967409;28;1282;-68
2023/01/09 03:18:10;;;;;;;;;;;18.00;67.30;;;;;;4966630;28;909;-68
2023/01/09 03:20:36;;;;;;;;;;;17.90;67.30;;;;;;4968624;28;931;-67
2023/01/09 03:23:02;;;;;;;;;;;18.00;67.40;;;;;;4967599;28;1018;-70
2023/01/09 03:25:28;;;;;;;;;;;18.00;67.30;;;;;;4967000;28;1278;-68
2023/01/09 03:28:00;;;;;;;;;;;18.00;67.40;;;;;;4969518;28;851;-69
2023/01/09 03:30:26;;;;;;;;;;;18.00;67.40;;;;;;4970482;28;1914;-68
2023/01/09 03:32:52;;;;;;;;;;;18.00;67.40;;;;;;4983834;28;834;-69
2023/01/09 03:35:17;;;;;;;;;;;17.90;67.30;;;;;;4969359;28;1346;-68
2023/01/09 03:37:43;;;;;;;;;;;18.00;67.40;;;;;;4969619;28;823;-69
2023/01/09 03:40:09;;;;;;;;;;;18.00;67.40;;;;;;4970759;28;852;-68
2023/01/09 03:42:34;;;;;;;;;;;18.00;67.40;;;;;;4968724;28;807;-68
2023/01/09 03:44:59;;;;;;;;;;;18.00;67.40;;;;;;4966454;28;1273;-67
2023/01/09 03:47:25;;;;;;;;;;;18.00;67.40;;;;;;4965408;28;873;-67
2023/01/09 03:49:50;;;;;;;;;;;17.90;67.30;;;;;;4968719;28;1954;-69
2023/01/09 03:52:16;;;;;;;;;;;17.90;67.30;;;;;;4971575;28;845;-69
2023/01/09 03:54:41;;;;;;;;;;;17.90;67.30;;;;;;4976667;28;1248;-69
2023/01/09 03:57:07;;;;;;;;;;;18.00;67.40;;;;;;4968911;28;1010;-70
2023/01/09 03:59:32;;;;;;;;;;;18.00;67.40;;;;;;4961970;28;860;-70
2023/01/09 04:01:58;;;;;;;;;;;17.90;67.30;;;;;;4969213;28;971;-70
2023/01/09 04:04:23;;;;;;;;;;;17.90;67.40;;;;;;4968266;28;879;-68
2023/01/09 04:06:48;;;;;;;;;;;17.90;67.30;;;;;;4966685;28;1266;-68
2023/01/09 04:09:14;;;;;;;;;;;17.90;67.30;;;;;;4964375;28;1886;-68
2023/01/09 04:11:39;;;;;;;;;;;17.90;67.30;;;;;;4965129;28;934;-68
2023/01/09 04:14:05;;;;;;;;;;;17.90;67.30;;;;;;4967876;28;1066;-69
2023/01/09 04:16:30;;;;;;;;;;;18.00;67.40;;;;;;4967781;28;1267;-69
2023/01/09 04:18:56;;;;;;;;;;;17.90;67.40;;;;;;4968360;28;896;-69
2023/01/09 04:21:21;;;;;;;;;;;17.90;67.40;;;;;;4969019;28;1648;-69
2023/01/09 04:23:46;;;;;;;;;;;17.90;67.30;;;;;;4964877;28;853;-67
2023/01/09 04:26:12;;;;;;;;;;;17.90;67.40;;;;;;4968086;28;1280;-68
2023/01/09 04:28:37;;;;;;;;;;;17.90;67.40;;;;;;4965880;28;812;-68
2023/01/09 04:31:04;;;;;;;;;;;17.90;67.40;;;;;;4964636;28;1910;-68
2023/01/09 04:33:29;;;;;;;;;;;17.90;67.40;;;;;;4964900;28;857;-69
2023/01/09 04:35:55;;;;;;;;;;;17.90;67.40;;;;;;4967660;28;1269;-68
2023/01/09 04:38:20;;;;;;;;;;;17.90;67.40;;;;;;4966305;28;818;-70
2023/01/09 04:40:46;;;;;;;;;;;17.90;67.40;;;;;;4968920;28;860;-67
2023/01/09 04:43:12;;;;;;;;;;;17.90;67.40;;;;;;4968109;28;873;-68
2023/01/09 04:45:37;;;;;;;;;;;17.90;67.40;;;;;;4961382;28;1254;-69
2023/01/09 04:48:03;;;;;;;;;;;17.90;67.40;;;;;;4966769;28;851;-68
2023/01/09 04:50:28;;;;;;;;;;;17.90;67.40;;;;;;4965727;28;1961;-68
2023/01/09 04:52:55;;;;;;;;;;;17.90;67.40;;;;;;4962005;28;1337;-69
2023/01/09 04:55:21;;;;;;;;;;;17.90;67.40;;;;;;4967099;28;1346;-71
2023/01/09 04:57:46;;;;;;;;;;;17.90;67.50;;;;;;4964317;28;1078;-69
2023/01/09 05:00:12;;;;;;;;;;;17.90;68.20;;;;;;4965578;28;1232;-68
2023/01/09 05:02:37;;;;;;;;;;;17.90;67.50;;;;;;4964281;28;907;-70
2023/01/09 05:05:04;;;;;;;;;;;17.90;67.40;;;;;;4963687;28;1333;-69
2023/01/09 05:07:29;;;;;;;;;;;17.90;67.50;;;;;;4962624;28;867;-69
2023/01/09 05:09:54;;;;;;;;;;;17.90;67.40;;;;;;4967428;28;1911;-69
2023/01/09 05:12:20;;;;;;;;;;;17.90;67.30;;;;;;4967330;28;899;-68
2023/01/09 05:14:45;;;;;;;;;;;17.90;67.30;;;;;;4965949;28;1391;-68
2023/01/09 05:17:11;;;;;;;;;;;18.00;67.30;;;;;;4966063;28;846;-68
2023/01/09 05:19:36;;;;;;;;;;;18.00;67.20;;;;;;4966309;28;1073;-68
2023/01/09 05:22:02;;;;;;;;;;;18.00;67.00;;;;;;4968765;28;1341;-70
2023/01/09 05:24:27;;;;;;;;;;;18.10;67.00;;;;;;4961866;28;794;-68
2023/01/09 05:26:53;;;;;;;;;;;18.10;66.80;;;;;;4964357;28;1225;-69
2023/01/09 05:29:18;;;;;;;;;;;18.10;66.60;;;;;;4967064;28;1973;-69
2023/01/09 05:31:44;;;;;;;;;;;18.20;66.50;;;;;;4968231;28;816;-69
2023/01/09 05:34:09;;;;;;;;;;;18.20;66.40;;;;;;4964496;28;957;-69
2023/01/09 05:36:35;;;;;;;;;;;18.20;66.30;;;;;;4966770;28;1452;-70
2023/01/09 05:39:01;;;;;;;;;;;18.30;66.20;;;;;;4963577;28;906;-70
2023/01/09 05:41:27;;;;;;;;;;;18.30;66.10;;;;;;4965862;28;1256;-70
2023/01/09 05:43:52;;;;;;;;;;;18.30;66.00;;;;;;4964796;28;947;-69
2023/01/09 05:46:18;;;;;;;;;;;18.30;65.90;;;;;;4967861;28;1311;-69
2023/01/09 05:48:44;;;;;;;;;;;18.30;66.60;;;;;;4966736;28;926;-69
2023/01/09 05:51:09;;;;;;;;;;;18.30;65.70;;;;;;4965455;28;1911;-69
2023/01/09 05:53:35;;;;;;;;;;;18.40;65.70;;;;;;4963393;28;867;-68
2023/01/09 05:56:00;;;;;;;;;;;18.40;65.70;;;;;;4967049;28;1269;-69
2023/01/09 05:58:26;;;;;;;;;;;18.40;65.60;;;;;;4968766;28;899;-69
2023/01/09 06:00:52;;;;;;;;;;;18.40;65.50;;;;;;4968693;28;881;-69
2023/01/09 06:03:17;;;;;;;;;;;18.40;65.50;;;;;;4967542;28;990;-68
2023/01/09 06:05:43;;;;;;;;;;;18.40;65.50;;;;;;4961898;28;1269;-69
2023/01/09 06:08:08;;;;;;;;;;;18.40;65.40;;;;;;4966533;28;884;-68
2023/01/09 06:10:34;;;;;;;;;;;18.50;66.20;;;;;;4966712;28;1958;-69
2023/01/09 06:12:59;;;;;;;;;;;18.50;65.40;;;;;;4967133;28;1086;-69
2023/01/09 06:15:25;;;;;;;;;;;18.50;65.40;;;;;;4964102;28;1287;-68
2023/01/09 06:17:50;;;;;;;;;;;18.50;65.40;;;;;;4965189;28;934;-69
2023/01/09 06:20:16;;;;;;;;;;;18.50;65.30;;;;;;4963289;28;1261;-68
2023/01/09 06:22:43;;;;;;;;;;;18.50;65.30;;;;;;4965358;28;1098;-69
2023/01/09 06:25:09;;;;;;;;;;;18.50;65.30;;;;;;4966821;28;1287;-69
2023/01/09 06:27:34;;;;;;;;;;;18.50;65.20;;;;;;4964772;28;896;-70
2023/01/09 06:30:00;;;;;;;;;;;18.50;65.20;;;;;;4964834;28;1973;-69
2023/01/09 06:32:25;;;;;;;;;;;18.50;65.20;;;;;;4965440;28;891;-69
2023/01/09 06:34:50;;;;;;;;;;;18.50;65.20;;;;;;4963622;28;1305;-70
2023/01/09 06:37:16;;;;;;;;;;;18.50;65.20;;;;;;4966828;28;895;-70
2023/01/09 06:39:41;;;;;;;;;;;18.50;65.20;;;;;;4968235;28;1073;-70
2023/01/09 06:42:07;;;;;;;;;;;18.50;65.20;;;;;;4980959;28;1508;-70
2023/01/09 06:44:35;;;;;;;;;;;18.50;65.10;;;;;;4966024;28;877;-70
2023/01/09 06:47:01;;;;;;;;;;;18.50;65.20;;;;;;4962066;28;1321;-70
2023/01/09 06:49:26;;;;;;;;;;;18.50;65.20;;;;;;4962597;28;2051;-70
2023/01/09 06:51:52;;;;;;;;;;;18.50;65.20;;;;;;4963125;28;883;-69
2023/01/09 06:54:18;;;;;;;;;;;18.50;65.20;;;;;;4965299;28;821;-70
2023/01/09 06:56:43;;;;;;;;;;;18.50;65.20;;;;;;4966961;28;1387;-69
2023/01/09 06:59:09;;;;;;;;;;;18.50;65.20;;;;;;4969522;28;887;-70
2023/01/09 07:01:34;;;;;;;;;;;18.50;65.20;;;;;;4973579;28;1010;-69
2023/01/09 07:03:59;;;;;;;;;;;18.50;65.20;;;;;;4971214;28;1286;-69
2023/01/09 07:06:25;;;;;;;;;;;18.50;65.20;;;;;;4968354;28;1367;-69
2023/01/09 07:08:50;;;;;;;;;;;18.50;65.20;;;;;;4964764;28;914;-68
2023/01/09 07:11:16;;;;;;;;;;;18.50;65.30;;;;;;4966454;28;1899;-68
2023/01/09 07:13:41;;;;;;;;;;;18.50;65.30;;;;;;4970216;28;1236;-69
2023/01/09 07:16:07;;;;;;;;;;;18.50;65.40;;;;;;4969094;28;1253;-68
2023/01/09 07:18:32;;;;;;;;;;;18.50;65.30;;;;;;4967129;28;812;-69
2023/01/09 07:20:58;;;;;;;;;;;18.50;65.40;;;;;;4966864;28;880;-69
2023/01/09 07:23:23;;;;;;;;;;;18.50;65.40;;;;;;4984610;28;820;-69
2023/01/09 07:25:49;;;;;;;;;;;18.50;65.40;;;;;;4984729;28;1234;-69
2023/01/09 07:28:14;;;;;;;;;;;18.50;65.40;;;;;;4966672;28;879;-70
2023/01/09 07:30:40;;;;;;;;;;;18.40;65.40;;;;;;4967820;28;1911;-69
2023/01/09 07:33:05;;;;;;;;;;;18.40;65.40;;;;;;4970265;28;886;-71
2023/01/09 07:35:31;;;;;;;;;;;18.40;65.40;;;;;;4965228;28;1378;-70
2023/01/09 07:37:56;;;;;;;;;;;18.40;65.50;;;;;;4969439;28;892;-69
2023/01/09 07:40:22;;;;;;;;;;;18.40;65.50;;;;;;4967993;28;808;-69
2023/01/09 07:42:47;;;;;;;;;;;18.40;65.50;;;;;;4970089;28;808;-68
2023/01/09 07:45:13;;;;;;;;;;;18.40;65.50;;;;;;4967107;28;1335;-68
2023/01/09 07:47:39;;;;;;;;;;;18.40;65.60;;;;;;4966518;28;931;-68
2023/01/09 07:50:05;;;;;;;;;;;18.40;65.60;;;;;;4967416;28;1902;-68
2023/01/09 07:52:31;;;;;;;;;;;18.40;65.60;;;;;;4965448;28;974;-68
2023/01/09 07:54:56;;;;;;;;;;;18.40;65.70;;;;;;4968277;28;1277;-68
2023/01/09 07:57:21;;;;;;;;;;;18.40;65.70;;;;;;4968651;28;820;-68
2023/01/09 07:59:47;;;;;;;;;;;18.40;65.70;;;;;;4967856;28;1580;-68
2023/01/09 08:02:12;;;;;;;;;;;18.30;65.70;;;;;;4967683;28;859;-70
2023/01/09 08:04:38;;;;;;;;;;;18.40;65.80;;;;;;4968037;28;1312;-68
2023/01/09 08:07:03;;;;;;;;;;;18.30;65.70;;;;;;4966095;28;788;-68
2023/01/09 08:09:29;;;;;;;;;;;18.30;65.70;;;;;;4967286;28;1908;-68
2023/01/09 08:11:56;;;;;;;;;;;18.30;65.70;;;;;;4968280;28;832;-70
2023/01/09 08:14:21;;;;;;;;;;;18.30;65.80;;;;;;4966850;28;864;-69
2023/01/09 08:16:47;;;;;;;;;;;18.30;65.80;;;;;;4967151;28;1273;-68
2023/01/09 08:19:12;;;;;;;;;;;18.30;65.80;;;;;;4952708;28;1498;-68
2023/01/09 08:21:38;;;;;;;;;;;18.30;65.80;;;;;;4965686;28;1261;-69
2023/01/09 08:24:04;;;;;;;;;;;18.30;65.90;;;;;;4968582;28;891;-69
2023/01/09 08:26:29;;;;;;;;;;;18.30;65.80;;;;;;4969534;28;1253;-69
2023/01/09 08:28:54;;;;;;;;;;;18.30;65.80;;;;;;4968827;28;1472;-69
2023/01/09 08:31:20;;;;;;;;;;;18.30;65.80;;;;;;4966958;28;1894;-69
2023/01/09 08:33:45;;;;;;;;;;;18.30;65.80;;;;;;4965872;28;842;-70
2023/01/09 08:36:11;;;;;;;;;;;18.30;66.60;;;;;;4966601;28;1357;-69
2023/01/09 08:38:36;;;;;;;;;;;18.30;65.80;;;;;;4963334;28;1013;-70
2023/01/09 08:47:04;;;;;;;;;;;18.30;65.70;;;;;;4965735;28;930;-70
2023/01/09 08:49:18;;;;;;;;;;;18.40;65.70;;;;;;4969898;28;1907;-70
2023/01/09 08:51:44;;;;;;;;;;;18.40;65.60;;;;;;4964935;28;1632;-70
2023/01/09 08:54:10;;;;;;;;;;;18.40;65.60;;;;;;4966029;28;1326;-69
2023/01/09 08:56:35;;;;;;;;;;;18.40;65.60;;;;;;4965850;28;1311;-68
2023/01/09 08:59:01;;;;;;;;;;;18.40;65.60;;;;;;4965509;28;1081;-68
2023/01/09 09:01:26;;;;;;;;;;;18.40;65.50;;;;;;4967345;28;903;-68
2023/01/09 09:03:52;;;;;;;;;;;18.40;65.50;;;;;;4968217;28;820;-68
2023/01/09 09:06:17;;;;;;;;;;;18.40;65.50;;;;;;4966748;28;1303;-68
2023/01/09 09:08:43;;;;;;;;;;;18.40;65.40;;;;;;4965795;28;888;-69
2023/01/09 09:11:08;;;;;;;;;;;18.50;65.50;;;;;;4966622;28;1911;-69
2023/01/09 09:13:34;;;;;;;;;;;18.50;65.40;;;;;;4967803;28;921;-69
2023/01/09 09:16:00;;;;;;;;;;;18.50;65.40;;;;;;4962787;28;4192;-70
2023/01/09 09:18:25;;;;;;;;;;;18.50;65.40;;;;;;4947115;28;4525;-69
2023/01/09 09:20:50;;;;;;;;;;;18.50;65.30;;;;;;4965649;28;1135;-70
2023/01/09 09:23:16;;;;;;;;;;;18.50;65.30;;;;;;4966963;28;1019;-71
2023/01/09 09:25:42;;;;;;;;;;;18.50;65.30;;;;;;4966752;28;1328;-71
2023/01/09 09:28:08;;;;;;;;;;;18.50;65.30;;;;;;4965667;28;904;-71
2023/01/09 09:30:34;;;;;;;;;;;18.50;65.20;;;;;;4967110;28;1903;-71
2023/01/09 09:33:01;;;;;;;;;;;18.50;65.20;;;;;;4967372;28;895;-71
2023/01/09 09:35:27;;;;;;;;;;;18.50;65.20;;;;;;4981508;28;1275;-71
2023/01/09 09:37:53;;;;;;;;;;;18.50;65.20;;;;;;4964350;28;839;-70
2023/01/09 09:40:30;;;;;;;;;;;18.50;65.10;;;;;;4966391;28;1652;-70
2023/01/09 09:46:00;;;;;;;;;;;18.50;65.10;;;;;;4962088;28;1249;-70
2023/01/09 09:48:34;;;;;;;;;;;18.60;65.10;;;;;;4964941;28;924;-69
2023/01/09 09:51:15;;;;;;;;;;;18.60;65.10;;;;;;4964443;28;1910;-72
2023/01/09 09:53:47;;;;;;;;;;;18.60;65.00;;;;;;4969265;28;1053;-72
2023/01/09 09:56:13;;;;;;;;;;;18.60;65.00;;;;;;4964876;28;1279;-70
2023/01/09 09:58:59;;;;;;;;;;;18.60;65.00;;;;;;4964337;28;861;-71
2023/01/09 10:01:27;;;;;;;;;;;18.60;65.00;;;;;;4967247;28;1271;-69
2023/01/09 10:03:57;;;;;;;;;;;18.60;65.00;;;;;;4966433;28;1358;-69
2023/01/09 10:06:23;;;;;;;;;;;18.60;65.00;;;;;;4967298;28;1265;-70
2023/01/09 10:09:01;;;;;;;;;;;18.60;65.00;;;;;;4965330;28;872;-70
2023/01/09 10:11:32;;;;;;;;;;;18.60;65.70;;;;;;4961920;28;1968;-70
2023/01/09 10:14:03;;;;;;;;;;;18.60;65.00;;;;;;4964464;28;868;-71
2023/01/09 10:16:36;;;;;;;;;;;18.60;64.90;;;;;;4964752;28;1273;-70
2023/01/09 10:19:07;;;;;;;;;;;18.60;64.90;;;;;;4965047;28;873;-70
2023/01/09 10:21:33;;;;;;;;;;;18.60;64.90;;;;;;4967553;28;970;-70
2023/01/09 10:24:14;;;;;;;;;;;18.60;65.00;;;;;;4963993;28;920;-72
2023/01/09 10:26:47;;;;;;;;;;;18.60;65.00;;;;;;4962723;28;2292;-72
2023/01/09 10:29:31;;;;;;;;;;;18.60;65.00;;;;;;4970146;28;1964;-72
2023/01/09 10:32:03;;;;;;;;;;;18.60;65.00;;;;;;4968059;28;1275;-73
2023/01/09 10:34:31;;;;;;;;;;;18.60;65.00;;;;;;4965954;28;1386;-72
2023/01/09 10:36:58;;;;;;;;;;;18.60;65.10;;;;;;4985666;28;1396;-72
2023/01/09 10:39:30;;;;;;;;;;;18.50;65.00;;;;;;4970430;28;1393;-72
2023/01/09 10:42:04;;;;;;;;;;;18.50;65.00;;;;;;4969369;28;1372;-72
2023/01/09 10:44:37;;;;;;;;;;;18.50;65.10;;;;;;4969499;28;1404;-71
2023/01/09 10:47:04;;;;;;;;;;;18.50;65.10;;;;;;4977096;28;1427;-70
2023/01/09 10:49:29;;;;;;;;;;;18.50;65.20;;;;;;4970104;28;1910;-71
2023/01/09 10:52:10;;;;;;;;;;;18.50;65.20;;;;;;4971389;28;1253;-71
2023/01/09 10:54:36;;;;;;;;;;;18.50;65.20;;;;;;4968684;28;1319;-70
2023/01/09 10:57:06;;;;;;;;;;;18.50;65.20;;;;;;4973991;28;1236;-69
2023/01/09 10:59:32;;;;;;;;;;;18.50;65.30;;;;;;4967718;28;1507;-73
2023/01/09 11:01:57;;;;;;;;;;;18.50;65.30;;;;;;4971683;28;1591;-73
2023/01/09 11:04:28;;;;;;;;;;;18.50;65.30;;;;;;4981335;28;1257;-74
2023/01/09 11:07:14;;;;;;;;;;;18.50;65.40;;;;;;4984083;28;1412;-74
2023/01/09 11:09:58;;;;;;;;;;;18.50;65.40;;;;;;4971395;28;1898;-70
2023/01/09 11:12:27;;;;;;;;;;;18.40;65.40;;;;;;4965428;28;832;-71
2023/01/09 11:14:53;;;;;;;;;;;18.50;65.50;;;;;;4966231;28;1272;-70
2023/01/09 11:17:24;;;;;;;;;;;18.40;65.40;;;;;;4967080;28;857;-70
2023/01/09 11:20:10;;;;;;;;;;;18.40;65.40;;;;;;4966066;28;982;-73
2023/01/09 11:22:43;;;;;;;;;;;18.40;65.50;;;;;;4968259;28;1197;-71
2023/01/09 11:25:15;;;;;;;;;;;18.40;65.60;;;;;;4967141;28;1397;-73
2023/01/09 11:27:41;;;;;;;;;;;18.40;65.60;;;;;;4969810;28;900;-71
2023/01/09 11:30:06;;;;;;;;;;;18.40;66.40;;;;;;4966232;28;1955;-72
2023/01/09 11:32:32;;;;;;;;;;;18.40;65.60;;;;;;4966253;28;923;-72
2023/01/09 11:34:57;;;;;;;;;;;18.40;65.60;;;;;;4966873;28;1356;-72
2023/01/09 11:37:24;;;;;;;;;;;18.40;65.70;;;;;;4967358;28;875;-72
2023/01/09 11:39:50;;;;;;;;;;;18.40;65.70;;;;;;4963760;28;916;-72
2023/01/09 11:42:49;;;;;;;;;;;18.40;65.80;;;;;;4967184;28;1305;-72
2023/01/09 11:45:05;;;;;;;;;;;18.40;65.70;;;;;;4963762;28;1270;-71
2023/01/09 11:47:37;;;;;;;;;;;18.30;65.70;;;;;;4968311;28;828;-71
2023/01/09 11:50:15;;;;;;;;;;;18.30;65.70;;;;;;4964468;28;1957;-73
2023/01/09 11:52:41;;;;;;;;;;;18.30;65.80;;;;;;4968421;28;860;-71
2023/01/09 11:55:08;;;;;;;;;;;18.30;65.80;;;;;;4967356;28;1363;-72
2023/01/09 11:57:33;;;;;;;;;;;18.30;65.90;;;;;;4964308;28;907;-72
2023/01/09 12:00:00;;;;;;;;;;;18.30;65.90;;;;;;4968771;28;870;-72
2023/01/09 12:02:30;;;;;;;;;;;18.30;65.90;;;;;;4967159;28;955;-72
2023/01/09 12:05:01;;;;;;;;;;;18.30;66.00;;;;;;4966249;28;1264;-71
2023/01/09 12:07:37;;;;;;;;;;;18.30;66.00;;;;;;4969457;28;1228;-71
2023/01/09 12:10:08;;;;;;;;;;;18.30;66.00;;;;;;4966496;28;1906;-71
2023/01/09 12:12:42;;;;;;;;;;;18.30;66.00;;;;;;4968290;28;1065;-70
2023/01/09 12:15:22;;;;;;;;;;;18.30;66.10;;;;;;4968458;28;1214;-72
2023/01/09 12:17:53;;;;;;;;;;;18.30;66.10;;;;;;4972810;28;923;-71
2023/01/09 12:20:37;;;;;;;;;;;18.30;66.10;;;;;;4967264;28;1350;-71
2023/01/09 12:23:06;;;;;;;;;;;18.30;66.20;;;;;;4968292;28;904;-71
2023/01/09 12:25:37;;;;;;;;;;;18.30;66.20;;;;;;4963481;28;1241;-71
2023/01/09 12:28:03;;;;;;;;;;;18.20;66.20;;;;;;4980918;28;1313;-72
2023/01/09 12:30:28;;;;;;;;;;;18.20;66.20;;;;;;4964840;28;1918;-71
2023/01/09 12:33:12;;;;;;;;;;;18.20;66.20;;;;;;4963415;28;1033;-70
2023/01/09 12:35:41;;;;;;;;;;;18.20;66.20;;;;;;4965651;28;1288;-70
2023/01/09 12:38:20;;;;;;;;;;;18.20;66.30;;;;;;4967692;28;852;-71
2023/01/09 12:41:01;;;;;;;;;;;18.20;66.30;;;;;;4966685;28;868;-70
2023/01/09 12:43:46;;;;;;;;;;;18.20;66.30;;;;;;4967310;28;948;-71
2023/01/09 12:46:12;;;;;;;;;;;18.20;66.20;;;;;;4973722;28;1330;-71
2023/01/09 12:48:40;;;;;;;;;;;18.20;65.10;;;;;;4968570;28;824;-71
2023/01/09 12:51:12;;;;;;;;;;;18.20;63.50;;;;;;4982150;28;1914;-70
2023/01/09 12:53:39;;;;;;;;;;;18.20;63.60;;;;;;4969257;28;881;-71
2023/01/09 12:56:09;;;;;;;;;;;18.20;61.30;;;;;;4965457;28;1375;-71
2023/01/09 12:58:42;;;;;;;;;;;18.20;61.10;;;;;;4966300;28;837;-71
2023/01/09 13:01:11;;;;;;;;;;;18.20;61.50;;;;;;4973813;28;868;-70
2023/01/09 13:03:42;;;;;;;;;;;18.20;62.30;;;;;;4965451;28;1346;-71
2023/01/09 13:06:10;;;;;;;;;;;18.20;62.30;;;;;;4965169;28;1281;-71
2023/01/09 13:08:39;;;;;;;;;;;18.20;62.60;;;;;;4965995;28;994;-71
2023/01/09 13:11:12;;;;;;;;;;;18.20;62.90;;;;;;4965550;28;1962;-71
2023/01/09 13:13:37;;;;;;;;;;;18.20;63.10;;;;;;4964525;28;833;-71
2023/01/09 13:16:04;;;;;;;;;;;18.20;63.30;;;;;;4967030;28;1254;-70
2023/01/09 13:18:34;;;;;;;;;;;18.10;63.40;;;;;;4966234;28;869;-70
2023/01/09 13:21:00;;;;;;;;;;;18.10;63.60;;;;;;4965032;28;1370;-71
2023/01/09 13:23:45;;;;;;;;;;;18.10;63.70;;;;;;4961672;28;916;-71
2023/01/09 13:26:30;;;;;;;;;;;18.10;63.90;;;;;;4965725;28;1281;-71
2023/01/09 13:28:59;;;;;;;;;;;18.10;64.10;;;;;;4973056;28;846;-71
2023/01/09 13:31:27;;;;;;;;;;;18.10;64.10;;;;;;4964579;28;1950;-71
2023/01/09 13:33:56;;;;;;;;;;;18.10;64.30;;;;;;4972147;28;903;-71
2023/01/09 13:36:25;;;;;;;;;;;18.10;64.40;;;;;;4967163;28;1390;-71
2023/01/09 13:38:50;;;;;;;;;;;18.10;64.50;;;;;;4962977;28;839;-70
2023/01/09 13:44:01;;;;;;;;;;;18.10;64.60;;;;;;4961090;28;781;-72
2023/01/09 13:46:39;;;;;;;;;;;18.00;64.60;;;;;;4963796;28;1256;-72
2023/01/09 13:49:24;;;;;;;;;;;18.10;64.80;;;;;;4963753;28;862;-71
2023/01/09 13:52:24;;;;;;;;;;;18.00;64.80;;;;;;4966938;28;1314;-72
2023/01/09 13:54:50;;;;;;;;;;;18.10;64.90;;;;;;4973171;28;1414;-70
2023/01/09 13:57:24;;;;;;;;;;;18.00;65.00;;;;;;4962758;28;871;-70
2023/01/09 13:59:49;;;;;;;;;;;18.00;65.00;;;;;;4949039;28;4735;-69
2023/01/09 14:02:33;;;;;;;;;;;18.00;65.00;;;;;;4965726;28;4283;-67
2023/01/09 14:04:59;;;;;;;;;;;18.00;65.10;;;;;;4968291;28;1401;-70
2023/01/09 14:07:26;;;;;;;;;;;18.00;65.20;;;;;;4970533;28;768;-73
2023/01/09 14:09:53;;;;;;;;;;;18.00;65.20;;;;;;4969989;28;1910;-71
2023/01/09 14:12:18;;;;;;;;;;;18.00;65.20;;;;;;4968258;28;843;-70
2023/01/09 14:14:44;;;;;;;;;;;18.00;65.30;;;;;;4969301;28;2149;-73
2023/01/09 14:17:36;;;;;;;;;;;18.00;65.40;;;;;;4971241;28;1362;-73
2023/01/09 14:20:03;;;;;;;;;;;18.00;65.40;;;;;;4970064;28;1272;-73
2023/01/09 14:22:29;;;;;;;;;;;18.00;65.50;;;;;;4969834;28;923;-72
2023/01/09 14:24:55;;;;;;;;;;;18.00;65.40;;;;;;4968621;28;1293;-70
2023/01/09 14:27:39;;;;;;;;;;;18.00;65.50;;;;;;4970664;28;1329;-70
2023/01/09 14:30:24;;;;;;;;;;;18.00;65.50;;;;;;4965261;28;4123;-71
2023/01/09 14:33:01;;;;;;;;;;;18.00;65.60;;;;;;4970163;28;939;-70
2023/01/09 14:35:27;;;;;;;;;;;18.00;65.60;;;;;;4966921;28;1371;-69
2023/01/09 14:38:11;;;;;;;;;;;18.00;65.60;;;;;;4966719;28;827;-70
2023/01/09 14:40:36;;;;;;;;;;;18.00;65.70;;;;;;4968356;28;813;-70
2023/01/09 14:43:06;;;;;;;;;;;18.00;65.70;;;;;;4972268;28;922;-69
2023/01/09 14:45:31;;;;;;;;;;;18.00;65.70;;;;;;4969897;28;1276;-68
2023/01/09 14:47:59;;;;;;;;;;;18.00;65.80;;;;;;4968835;28;1334;-68
2023/01/09 14:50:30;;;;;;;;;;;18.00;65.80;;;;;;4969502;28;1958;-71
2023/01/09 14:53:01;;;;;;;;;;;18.00;65.80;;;;;;4970186;28;903;-70
2023/01/09 14:55:49;;;;;;;;;;;18.00;65.80;;;;;;4967789;28;1335;-72
2023/01/09 14:58:22;;;;;;;;;;;17.90;65.80;;;;;;4964136;28;884;-72
2023/01/09 15:01:00;;;;;;;;;;;17.90;65.80;;;;;;4967359;28;829;-71